Time;durP1;ratioP1;P1;durP2;ratioP2;P2;SDS_P1;SDS_P2;PMS_P1;PMS_P2;Temp;Humidity;BMP_temperature;BMP_pressure;BME280_temperature;BME280_humidity;BME280_pressure;Samples;Min_cycle;Max_cycle;Signal;HPM_P1;HPM_P2
2023/10/21 00:02:02;;;;;;;9.02;3.55;;;17.60;99.90;;;;;;4992770;28;20471;-64
2023/10/21 00:04:29;;;;;;;6.97;3.75;;;17.60;99.90;;;;;;4994508;28;20042;-64
2023/10/21 00:06:54;;;;;;;8.55;3.90;;;17.60;99.90;;;;;;4994556;28;20430;-65
2023/10/21 00:09:20;;;;;;;7.65;3.20;;;17.50;99.90;;;;;;4994436;28;20026;-65
2023/10/21 00:11:46;;;;;;;8.13;3.28;;;17.60;99.90;;;;;;4994219;28;20475;-65
2023/10/21 00:14:12;;;;;;;8.23;3.90;;;17.50;99.90;;;;;;4994426;28;20034;-65
2023/10/21 00:16:38;;;;;;;6.95;3.53;;;17.50;99.90;;;;;;4993941;28;20033;-65
2023/10/21 00:19:03;;;;;;;7.03;3.00;;;17.50;99.90;;;;;;4994459;28;20026;-65
2023/10/21 00:21:30;;;;;;;6.30;3.10;;;17.50;99.90;;;;;;4994202;28;20105;-65
2023/10/21 00:23:55;;;;;;;8.52;3.90;;;17.40;99.90;;;;;;5009241;28;20029;-65
2023/10/21 00:26:21;;;;;;;7.45;3.45;;;17.50;99.90;;;;;;4994165;28;20027;-65
2023/10/21 00:28:47;;;;;;;6.43;2.92;;;17.40;99.90;;;;;;4994089;28;20019;-65
2023/10/21 00:31:13;;;;;;;8.25;2.95;;;17.50;99.90;;;;;;4993724;28;20182;-65
2023/10/21 00:33:38;;;;;;;7.85;3.03;;;17.50;99.90;;;;;;4993798;28;20128;-65
2023/10/21 00:36:04;;;;;;;6.75;3.08;;;17.50;99.90;;;;;;4994015;28;20026;-65
2023/10/21 00:38:30;;;;;;;5.22;2.70;;;17.50;99.90;;;;;;4994039;28;20074;-65
2023/10/21 00:40:56;;;;;;;4.90;2.72;;;17.50;99.90;;;;;;4994011;28;20487;-65
2023/10/21 00:43:39;;;;;;;5.18;2.83;;;17.50;99.90;;;;;;4993023;28;20022;-66
2023/10/21 00:46:18;;;;;;;9.25;2.70;;;17.50;99.90;;;;;;4993819;28;20064;-64
2023/10/21 00:48:48;;;;;;;7.32;2.72;;;17.50;99.90;;;;;;5009050;28;20022;-65
2023/10/21 00:51:15;;;;;;;9.38;2.25;;;17.50;99.90;;;;;;4993930;28;20026;-65
2023/10/21 00:53:42;;;;;;;6.53;2.75;;;17.60;99.90;;;;;;4993546;28;20041;-65
2023/10/21 00:56:08;;;;;;;9.07;3.30;;;17.60;99.90;;;;;;4993680;28;20391;-64
2023/10/21 00:58:35;;;;;;;4.82;2.13;;;17.60;99.90;;;;;;4993328;28;20030;-64
2023/10/21 01:01:02;;;;;;;6.32;2.20;;;17.60;99.90;;;;;;4993771;28;20023;-65
2023/10/21 01:03:30;;;;;;;4.47;2.20;;;17.70;99.90;;;;;;4993597;28;20402;-65
2023/10/21 01:05:56;;;;;;;4.30;2.20;;;17.60;99.90;;;;;;4993642;28;20026;-63
2023/10/21 01:08:22;;;;;;;6.35;2.40;;;17.70;99.90;;;;;;4993674;28;20077;-64
2023/10/21 01:10:47;;;;;;;3.60;2.03;;;17.70;99.90;;;;;;4992357;28;20015;-65
2023/10/21 01:13:13;;;;;;;4.30;2.03;;;17.70;99.90;;;;;;4993234;28;20578;-65
2023/10/21 01:15:39;;;;;;;4.88;2.28;;;17.70;99.90;;;;;;4993681;28;20046;-65
2023/10/21 01:18:08;;;;;;;7.40;2.42;;;17.60;99.90;;;;;;4993503;28;20034;-65
2023/10/21 01:20:39;;;;;;;4.63;2.00;;;17.70;99.90;;;;;;4993626;28;20037;-65
2023/10/21 01:23:06;;;;;;;3.90;2.05;;;17.60;99.90;;;;;;4993344;28;20046;-65
2023/10/21 01:25:32;;;;;;;5.32;2.38;;;17.70;99.90;;;;;;4993586;28;20090;-65
2023/10/21 01:27:58;;;;;;;4.07;1.90;;;17.60;99.90;;;;;;4993007;28;20105;-65
2023/10/21 01:30:24;;;;;;;8.43;2.15;;;17.70;99.90;;;;;;4993562;28;20108;-66
2023/10/21 01:32:50;;;;;;;6.30;2.20;;;17.60;99.90;;;;;;4993244;28;20490;-65
2023/10/21 01:35:17;;;;;;;4.47;1.50;;;17.60;99.90;;;;;;4993444;28;20026;-65
2023/10/21 01:37:44;;;;;;;3.88;1.77;;;17.60;99.90;;;;;;4992204;28;20435;-64
2023/10/21 01:40:10;;;;;;;4.28;1.95;;;17.70;99.90;;;;;;4993314;28;20018;-64
2023/10/21 01:42:39;;;;;;;7.75;2.33;;;17.70;99.90;;;;;;4993230;28;20026;-64
2023/10/21 01:45:06;;;;;;;5.75;2.22;;;17.70;99.90;;;;;;4993402;28;20364;-64
2023/10/21 01:47:32;;;;;;;5.15;1.75;;;17.60;99.90;;;;;;4992170;28;20498;-64
2023/10/21 01:49:58;;;;;;;4.53;1.77;;;17.60;99.90;;;;;;4991811;28;20085;-66
2023/10/21 01:52:24;;;;;;;4.13;1.73;;;17.60;99.90;;;;;;4993390;28;20231;-65
2023/10/21 01:54:51;;;;;;;4.82;1.90;;;17.70;99.90;;;;;;4995868;28;20106;-64
2023/10/21 01:57:16;;;;;;;6.88;2.08;;;17.70;99.90;;;;;;4996727;28;20030;-64
2023/10/21 01:59:43;;;;;;;5.20;2.15;;;17.60;99.90;;;;;;4996622;28;20022;-64
2023/10/21 02:02:09;;;;;;;6.65;2.08;;;17.60;99.90;;;;;;4996422;28;20391;-65
2023/10/21 02:04:35;;;;;;;6.07;1.88;;;17.60;99.90;;;;;;4996793;28;20044;-65
2023/10/21 02:07:00;;;;;;;5.22;1.80;;;17.50;99.90;;;;;;4996784;28;20081;-64
2023/10/21 02:09:26;;;;;;;6.53;2.00;;;17.60;99.90;;;;;;4996722;28;20387;-64
2023/10/21 02:11:55;;;;;;;4.05;1.85;;;17.60;99.90;;;;;;4996492;28;20069;-64
2023/10/21 02:14:24;;;;;;;7.55;2.00;;;17.60;99.90;;;;;;4996603;28;20026;-65
2023/10/21 02:16:51;;;;;;;4.43;1.90;;;17.50;99.90;;;;;;4996646;28;20055;-64
2023/10/21 02:19:16;;;;;;;6.03;2.45;;;17.50;99.90;;;;;;4996507;28;20471;-64
2023/10/21 02:21:42;;;;;;;5.78;2.50;;;17.40;99.90;;;;;;4996413;28;20053;-64
2023/10/21 02:24:08;;;;;;;4.53;1.73;;;17.40;99.90;;;;;;4996269;28;20057;-64
2023/10/21 02:26:33;;;;;;;4.50;1.70;;;17.50;99.90;;;;;;4996169;28;20025;-64
2023/10/21 02:28:59;;;;;;;5.85;1.67;;;17.50;99.90;;;;;;4996354;28;20022;-64
2023/10/21 02:31:24;;;;;;;6.47;1.77;;;17.40;99.90;;;;;;4996309;28;20026;-65
2023/10/21 02:33:50;;;;;;;4.63;1.90;;;17.40;99.90;;;;;;4996076;28;20045;-64
2023/10/21 02:36:15;;;;;;;3.08;1.60;;;17.40;99.90;;;;;;4996271;28;20515;-64
2023/10/21 02:38:41;;;;;;;5.07;1.80;;;17.40;99.90;;;;;;4996335;28;20049;-65
2023/10/21 02:41:07;;;;;;;5.45;1.45;;;17.50;99.90;;;;;;4995768;28;20097;-65
2023/10/21 02:43:33;;;;;;;9.20;2.50;;;17.50;99.90;;;;;;4996327;28;20476;-65
2023/10/21 02:46:11;;;;;;;4.32;2.28;;;17.40;99.90;;;;;;4995836;28;20101;-65
2023/10/21 02:48:38;;;;;;;5.68;2.05;;;17.40;99.90;;;;;;4995905;28;20026;-65
2023/10/21 02:51:17;;;;;;;4.85;1.60;;;17.40;99.90;;;;;;4995751;28;20034;-63
2023/10/21 02:53:44;;;;;;;3.53;1.63;;;17.40;99.90;;;;;;4995817;28;20034;-64
2023/10/21 02:56:10;;;;;;;9.25;2.45;;;17.40;99.90;;;;;;4995367;28;20110;-64
2023/10/21 02:58:36;;;;;;;5.00;2.15;;;17.50;99.90;;;;;;4995863;28;20101;-65
2023/10/21 03:01:18;;;;;;;6.03;2.05;;;17.40;99.90;;;;;;4995601;28;20018;-64
2023/10/21 03:03:45;;;;;;;3.55;1.75;;;17.40;99.90;;;;;;4995711;28;20038;-64
2023/10/21 03:06:12;;;;;;;5.68;2.17;;;17.50;99.90;;;;;;4994538;28;20022;-64
2023/10/21 03:08:39;;;;;;;5.45;2.08;;;17.50;99.90;;;;;;4995430;28;20499;-64
2023/10/21 03:11:06;;;;;;;7.78;2.60;;;17.60;99.90;;;;;;4995451;28;20427;-64
2023/10/21 03:13:38;;;;;;;4.57;2.20;;;17.60;99.90;;;;;;4995360;28;20030;-64
2023/10/21 03:16:10;;;;;;;5.65;2.33;;;17.50;99.90;;;;;;4995604;28;20015;-65
2023/10/21 03:18:37;;;;;;;3.90;1.90;;;17.60;99.90;;;;;;4995426;28;20026;-64
2023/10/21 03:21:04;;;;;;;6.18;2.40;;;17.60;99.90;;;;;;5010284;28;20027;-64
2023/10/21 03:23:30;;;;;;;5.85;2.30;;;17.60;99.90;;;;;;4995481;28;20023;-64
2023/10/21 03:26:00;;;;;;;5.72;2.38;;;17.50;99.90;;;;;;4995119;28;20022;-64
2023/10/21 03:28:27;;;;;;;5.70;2.55;;;17.60;99.90;;;;;;4995527;28;20050;-64
2023/10/21 03:31:05;;;;;;;5.82;3.05;;;17.60;99.90;;;;;;4994960;28;20497;-64
2023/10/21 03:33:32;;;;;;;8.68;2.95;;;17.50;99.90;;;;;;4995296;28;20498;-64
2023/10/21 03:35:59;;;;;;;7.57;3.40;;;17.60;99.90;;;;;;4992680;28;20383;-64
2023/10/21 03:38:25;;;;;;;5.78;2.38;;;17.50;99.90;;;;;;4991992;28;20053;-64
2023/10/21 03:40:54;;;;;;;5.47;2.92;;;17.60;99.90;;;;;;4993271;28;20060;-64
2023/10/21 03:43:20;;;;;;;7.38;2.85;;;17.60;99.90;;;;;;4993941;28;20118;-64
2023/10/21 03:45:45;;;;;;;4.55;2.55;;;17.60;99.90;;;;;;4994509;28;20074;-64
2023/10/21 03:48:11;;;;;;;6.38;2.67;;;17.50;99.90;;;;;;4994719;28;20472;-65
2023/10/21 03:50:36;;;;;;;6.82;2.85;;;17.40;99.90;;;;;;4994908;28;20109;-64
2023/10/21 03:53:02;;;;;;;5.60;2.65;;;17.50;99.90;;;;;;4994156;28;20034;-64
2023/10/21 03:55:28;;;;;;;5.55;2.50;;;17.40;99.90;;;;;;4994856;28;20070;-64
2023/10/21 03:57:54;;;;;;;6.60;2.80;;;17.40;99.90;;;;;;4994454;28;20553;-64
2023/10/21 04:00:21;;;;;;;6.60;2.50;;;17.40;99.90;;;;;;4994677;28;20026;-64
2023/10/21 04:02:47;;;;;;;5.75;2.47;;;17.50;99.90;;;;;;4994496;28;20037;-64
2023/10/21 04:05:12;;;;;;;5.13;2.80;;;17.40;99.90;;;;;;4994544;28;20034;-64
2023/10/21 04:07:38;;;;;;;6.10;2.53;;;17.50;99.90;;;;;;4994084;28;20022;-64
2023/10/21 04:10:04;;;;;;;4.22;2.10;;;17.40;99.90;;;;;;4994467;28;20101;-65
2023/10/21 04:12:30;;;;;;;4.50;1.70;;;17.40;99.90;;;;;;4994080;28;20081;-64
2023/10/21 04:14:56;;;;;;;4.18;1.80;;;17.40;99.90;;;;;;4994489;28;20033;-65
2023/10/21 04:17:21;;;;;;;6.47;2.13;;;17.40;99.90;;;;;;4993930;28;20464;-65
2023/10/21 04:19:47;;;;;;;4.53;2.30;;;17.40;99.90;;;;;;4994397;28;20044;-64
2023/10/21 04:22:13;;;;;;;5.28;2.17;;;17.50;99.90;;;;;;4993778;28;20022;-65
2023/10/21 04:24:38;;;;;;;5.07;2.20;;;17.50;99.90;;;;;;4994256;28;20018;-63
2023/10/21 04:27:04;;;;;;;6.95;2.47;;;17.40;99.90;;;;;;4994103;28;20051;-63
2023/10/21 04:29:32;;;;;;;4.07;1.88;;;17.40;99.90;;;;;;4994208;28;20475;-63
2023/10/21 04:31:58;;;;;;;6.38;2.00;;;17.40;99.90;;;;;;4993771;28;20073;-64
2023/10/21 04:34:25;;;;;;;5.07;2.00;;;17.40;99.90;;;;;;4994116;28;20431;-64
2023/10/21 04:36:50;;;;;;;6.43;2.28;;;17.40;99.90;;;;;;4993656;28;20022;-63
2023/10/21 04:39:16;;;;;;;5.80;2.22;;;17.40;99.90;;;;;;4993958;28;20049;-64
2023/10/21 04:41:42;;;;;;;4.90;2.10;;;17.40;99.90;;;;;;4994018;28;20068;-63
2023/10/21 04:44:09;;;;;;;6.00;2.00;;;17.30;99.90;;;;;;4993901;28;20071;-64
2023/10/21 04:46:35;;;;;;;5.63;2.53;;;17.40;99.90;;;;;;4994120;28;20491;-64
2023/10/21 04:49:00;;;;;;;7.75;2.13;;;17.40;99.90;;;;;;4992576;28;20050;-65
2023/10/21 04:51:26;;;;;;;7.07;2.08;;;17.30;99.90;;;;;;4993644;28;20181;-64
2023/10/21 04:53:52;;;;;;;7.40;2.30;;;17.30;99.90;;;;;;4993667;28;20037;-64
2023/10/21 04:56:17;;;;;;;4.25;1.75;;;17.30;99.90;;;;;;4993808;28;20054;-65
2023/10/21 04:58:43;;;;;;;4.75;1.65;;;17.30;99.90;;;;;;4993592;28;20030;-65
2023/10/21 05:01:10;;;;;;;6.25;1.65;;;17.30;99.90;;;;;;4993512;28;20480;-64
2023/10/21 05:03:36;;;;;;;4.20;1.90;;;17.30;99.90;;;;;;4993244;28;20113;-64
2023/10/21 05:06:04;;;;;;;4.32;2.03;;;17.30;99.90;;;;;;4992786;28;20023;-65
2023/10/21 05:08:31;;;;;;;6.63;2.30;;;17.30;99.90;;;;;;4992607;28;20479;-64
2023/10/21 05:10:56;;;;;;;4.75;1.80;;;17.20;99.90;;;;;;4993930;28;20459;-64
2023/10/21 05:13:23;;;;;;;4.00;2.00;;;17.30;99.90;;;;;;4993446;28;20041;-67
2023/10/21 05:15:50;;;;;;;6.60;2.28;;;17.30;99.90;;;;;;4992625;28;20096;-65
2023/10/21 05:18:16;;;;;;;5.05;2.22;;;17.30;99.90;;;;;;4993489;28;20081;-64
2023/10/21 05:20:42;;;;;;;5.18;1.73;;;17.30;99.90;;;;;;4993425;28;20023;-64
2023/10/21 05:23:17;;;;;;;7.82;1.98;;;17.40;99.90;;;;;;4992814;28;20038;-74
2023/10/21 05:25:44;;;;;;;4.57;1.60;;;17.40;99.90;;;;;;4993776;28;20019;-68
2023/10/21 05:28:12;;;;;;;4.55;1.38;;;17.40;99.90;;;;;;4993309;28;20423;-71
2023/10/21 05:30:42;;;;;;;3.47;1.58;;;17.50;99.90;;;;;;4997704;28;20110;-66
2023/10/21 05:33:08;;;;;;;3.15;1.40;;;17.50;99.90;;;;;;4997153;28;20037;-65
2023/10/21 05:35:34;;;;;;;4.28;1.20;;;17.50;99.90;;;;;;4996946;28;20090;-77
2023/10/21 05:38:00;;;;;;;3.95;1.30;;;17.50;99.90;;;;;;4996989;28;20053;-68
2023/10/21 05:40:26;;;;;;;4.35;1.42;;;17.40;99.90;;;;;;4991888;28;20022;-64
2023/10/21 05:42:56;;;;;;;3.85;1.25;;;17.40;99.90;;;;;;4997332;28;20418;-65
2023/10/21 05:45:23;;;;;;;4.75;1.50;;;17.40;99.90;;;;;;4997106;28;20105;-73
2023/10/21 05:47:49;;;;;;;2.25;1.10;;;17.40;99.90;;;;;;4996950;28;20129;-66
2023/10/21 05:50:19;;;;;;;3.08;1.00;;;17.40;99.90;;;;;;4995311;28;20534;-65
2023/10/21 05:52:45;;;;;;;3.97;1.33;;;17.30;99.90;;;;;;4996315;28;20053;-64
2023/10/21 05:55:11;;;;;;;3.30;1.08;;;17.30;99.90;;;;;;4981285;28;20406;-64
2023/10/21 05:57:37;;;;;;;2.67;1.13;;;17.30;99.90;;;;;;4996524;28;20034;-66
2023/10/21 06:00:05;;;;;;;4.07;0.90;;;17.40;99.90;;;;;;4996847;28;20053;-65
2023/10/21 06:02:31;;;;;;;2.85;1.00;;;17.40;99.90;;;;;;4996003;28;20034;-64
2023/10/21 06:04:57;;;;;;;1.73;0.75;;;17.40;99.90;;;;;;4995899;28;20068;-64
2023/10/21 06:07:23;;;;;;;2.03;0.90;;;17.40;99.90;;;;;;4993056;28;20109;-64
2023/10/21 06:09:48;;;;;;;2.50;1.02;;;17.30;99.90;;;;;;4993655;28;20034;-63
2023/10/21 06:12:14;;;;;;;2.10;1.10;;;17.40;99.90;;;;;;4994794;28;20031;-63
2023/10/21 06:14:39;;;;;;;3.72;0.90;;;17.40;99.90;;;;;;4991342;28;20498;-63
2023/10/21 06:17:05;;;;;;;2.50;1.20;;;17.40;99.90;;;;;;4991718;28;20023;-63
2023/10/21 06:19:31;;;;;;;0.98;0.57;;;17.50;99.90;;;;;;4990402;28;20027;-63
2023/10/21 06:21:56;;;;;;;2.65;1.10;;;17.50;99.90;;;;;;4991601;28;20038;-62
2023/10/21 06:24:22;;;;;;;2.03;0.90;;;17.50;99.90;;;;;;4994184;28;20096;-62
2023/10/21 06:26:47;;;;;;;3.53;1.15;;;17.50;99.90;;;;;;4993975;28;20357;-63
2023/10/21 06:29:13;;;;;;;4.45;1.67;;;17.50;99.90;;;;;;4995331;28;20062;-63
2023/10/21 06:31:39;;;;;;;2.13;0.88;;;17.50;99.90;;;;;;4993966;28;20030;-63
2023/10/21 06:34:05;;;;;;;2.85;1.17;;;17.50;99.90;;;;;;4994931;28;20498;-63
2023/10/21 06:36:31;;;;;;;2.88;1.25;;;17.50;99.90;;;;;;4993111;28;20033;-62
2023/10/21 06:38:57;;;;;;;3.30;0.75;;;17.50;99.90;;;;;;4994880;28;20097;-62
2023/10/21 06:41:23;;;;;;;2.30;0.50;;;17.50;99.90;;;;;;4995244;28;20018;-63
2023/10/21 06:43:50;;;;;;;2.40;0.80;;;17.40;99.90;;;;;;4993729;28;20034;-63
2023/10/21 06:46:15;;;;;;;2.08;0.98;;;17.40;99.90;;;;;;4989661;28;20557;-65
2023/10/21 06:48:41;;;;;;;0.93;0.35;;;17.40;99.90;;;;;;4991890;28;20070;-64
2023/10/21 06:51:06;;;;;;;2.38;1.00;;;17.40;99.90;;;;;;4995198;28;20586;-63
2023/10/21 06:53:32;;;;;;;2.50;0.70;;;17.40;99.90;;;;;;4994974;28;20038;-63
2023/10/21 06:55:58;;;;;;;3.53;0.77;;;17.40;99.90;;;;;;4991578;28;20097;-63
2023/10/21 06:58:26;;;;;;;1.98;0.60;;;17.40;99.90;;;;;;4993811;28;20089;-64
2023/10/21 07:00:52;;;;;;;1.40;0.50;;;17.40;99.90;;;;;;4993576;28;20109;-64
2023/10/21 07:03:17;;;;;;;38.22;4.82;;;17.40;99.90;;;;;;4993582;28;20054;-63
2023/10/21 07:05:43;;;;;;;2.97;0.88;;;17.40;99.90;;;;;;4992339;28;20022;-63
2023/10/21 07:08:09;;;;;;;3.05;0.43;;;17.50;99.90;;;;;;4992970;28;20077;-63
2023/10/21 07:10:34;;;;;;;19.50;2.13;;;17.60;99.90;;;;;;4998489;28;20030;-64
2023/10/21 07:13:01;;;;;;;5.20;0.93;;;17.60;99.90;;;;;;4993707;28;20128;-65
2023/10/21 07:15:28;;;;;;;3.08;0.85;;;17.70;99.90;;;;;;4988984;28;20077;-64
2023/10/21 07:17:54;;;;;;;4.25;0.63;;;17.80;99.90;;;;;;4992442;28;20454;-64
2023/10/21 07:20:19;;;;;;;1.65;0.65;;;17.80;99.90;;;;;;4992931;28;20049;-64
2023/10/21 07:22:45;;;;;;;1.92;0.70;;;17.80;99.90;;;;;;4992644;28;20077;-63
2023/10/21 07:25:11;;;;;;;3.20;0.55;;;17.90;99.90;;;;;;5000854;28;20010;-64
2023/10/21 07:27:36;;;;;;;2.38;0.90;;;17.90;99.90;;;;;;4993943;28;20034;-63
2023/10/21 07:30:04;;;;;;;2.15;0.60;;;17.90;99.90;;;;;;4994362;28;20022;-63
2023/10/21 07:32:30;;;;;;;4.80;0.63;;;17.90;99.90;;;;;;5005495;28;20116;-63
2023/10/21 07:34:55;;;;;;;4.68;0.68;;;17.90;99.90;;;;;;4987711;28;20109;-63
2023/10/21 07:37:21;;;;;;;4.63;0.60;;;17.90;99.90;;;;;;4990102;28;20085;-63
2023/10/21 07:39:47;;;;;;;2.88;0.60;;;17.90;99.90;;;;;;4998484;28;20046;-62
2023/10/21 07:42:14;;;;;;;5.68;0.90;;;17.90;99.90;;;;;;4991398;28;20030;-62
2023/10/21 07:44:41;;;;;;;2.17;0.73;;;17.90;99.90;;;;;;4991855;28;20490;-62
2023/10/21 07:47:10;;;;;;;6.63;1.23;;;17.80;99.90;;;;;;4992659;28;20478;-62
2023/10/21 07:49:37;;;;;;;5.00;1.25;;;17.90;99.90;;;;;;4987452;28;20019;-63
2023/10/21 07:52:03;;;;;;;4.10;1.20;;;17.90;99.90;;;;;;4992529;28;20065;-63
2023/10/21 07:54:28;;;;;;;4.32;1.00;;;17.90;99.90;;;;;;4990578;28;20112;-62
2023/10/21 07:56:54;;;;;;;7.82;2.15;;;17.90;99.90;;;;;;4991811;28;20038;-62
2023/10/21 07:59:21;;;;;;;13.15;8.25;;;17.90;99.90;;;;;;4989554;28;20025;-62
2023/10/21 08:01:46;;;;;;;9.85;6.38;;;18.00;99.90;;;;;;4991982;28;20034;-61
2023/10/21 08:04:12;;;;;;;9.30;6.53;;;18.00;99.90;;;;;;4991769;28;20038;-62
2023/10/21 08:06:38;;;;;;;18.15;10.00;;;18.00;99.90;;;;;;4992089;28;20026;-62
2023/10/21 08:09:05;;;;;;;28.05;11.07;;;18.00;99.90;;;;;;4990380;28;20030;-75
2023/10/21 08:11:32;;;;;;;19.52;8.80;;;18.00;99.90;;;;;;4992707;28;20029;-75
2023/10/21 08:13:58;;;;;;;21.23;8.38;;;18.00;99.90;;;;;;4991441;28;20026;-67
2023/10/21 08:16:23;;;;;;;19.50;7.25;;;18.00;99.90;;;;;;5006390;28;20484;-63
2023/10/21 08:18:50;;;;;;;15.13;5.97;;;18.00;99.90;;;;;;4991874;28;20060;-62
2023/10/21 08:21:16;;;;;;;17.60;6.65;;;18.00;99.90;;;;;;4989361;28;20037;-65
2023/10/21 08:23:42;;;;;;;14.75;5.65;;;18.00;99.90;;;;;;4992421;28;20038;-62
2023/10/21 08:26:07;;;;;;;11.50;5.07;;;18.00;99.90;;;;;;4987726;28;20019;-61
2023/10/21 08:28:33;;;;;;;10.10;4.88;;;18.00;99.90;;;;;;4988586;28;20109;-62
2023/10/21 08:30:59;;;;;;;7.55;2.80;;;18.00;99.90;;;;;;4984997;28;20468;-62
2023/10/21 08:33:25;;;;;;;11.15;3.67;;;18.00;99.90;;;;;;4985559;28;20038;-78
2023/10/21 08:35:50;;;;;;;6.55;2.38;;;18.00;99.90;;;;;;4986819;28;20034;-63
2023/10/21 08:38:16;;;;;;;9.75;2.28;;;18.00;99.90;;;;;;4988290;28;20038;-62
2023/10/21 08:40:46;;;;;;;9.07;1.80;;;18.00;99.90;;;;;;4990362;28;20022;-66
2023/10/21 08:43:16;;;;;;;6.38;1.65;;;18.00;99.90;;;;;;4988195;28;20105;-63
2023/10/21 08:45:43;;;;;;;4.18;1.27;;;17.90;99.90;;;;;;4987751;28;20415;-68
2023/10/21 08:48:11;;;;;;;4.68;1.05;;;18.00;99.90;;;;;;4990400;28;20073;-61
2023/10/21 08:50:38;;;;;;;6.72;1.35;;;18.00;99.90;;;;;;4989314;28;20950;-63
2023/10/21 08:53:11;;;;;;;6.72;1.25;;;18.00;99.90;;;;;;4984926;28;20572;-62
2023/10/21 08:55:38;;;;;;;16.15;1.58;;;18.00;99.90;;;;;;4990743;28;20044;-63
2023/10/21 08:58:06;;;;;;;5.20;0.98;;;17.90;99.90;;;;;;4989774;28;20521;-66
2023/10/21 09:00:32;;;;;;;5.38;1.00;;;18.00;99.90;;;;;;4989210;28;20022;-66
2023/10/21 09:02:58;;;;;;;7.05;1.27;;;17.90;99.90;;;;;;4989005;28;20042;-70
2023/10/21 09:05:24;;;;;;;5.38;0.82;;;17.90;99.90;;;;;;4993246;28;20384;-64
2023/10/21 09:07:50;;;;;;;8.88;1.25;;;17.90;99.90;;;;;;4994129;28;20042;-65
2023/10/21 09:10:17;;;;;;;3.90;0.80;;;17.90;99.90;;;;;;4987935;28;20027;-65
2023/10/21 09:12:43;;;;;;;5.45;0.88;;;18.00;99.90;;;;;;4995311;28;20030;-65
2023/10/21 09:15:09;;;;;;;4.88;1.27;;;17.90;99.90;;;;;;4995855;28;20030;-65
2023/10/21 09:17:41;;;;;;;5.22;1.00;;;17.90;99.90;;;;;;4993787;28;20394;-65
2023/10/21 09:20:13;;;;;;;2.75;0.65;;;17.90;99.90;;;;;;4995673;28;20537;-66
2023/10/21 09:22:40;;;;;;;5.57;0.95;;;17.90;99.90;;;;;;4994281;28;20081;-67
2023/10/21 09:25:14;;;;;;;4.57;1.08;;;17.80;99.90;;;;;;4995388;28;20050;-66
2023/10/21 09:27:44;;;;;;;4.55;1.17;;;17.80;99.90;;;;;;4993431;28;20026;-66
2023/10/21 09:30:14;;;;;;;5.88;1.15;;;17.80;99.90;;;;;;4994927;28;20097;-63
2023/10/21 09:32:41;;;;;;;4.00;0.73;;;17.80;99.90;;;;;;4992554;28;20106;-63
2023/10/21 09:35:38;;;;;;;6.60;0.98;;;17.80;99.90;;;;;;4991488;28;20493;-64
2023/10/21 09:38:18;;;;;;;2.88;0.50;;;17.80;99.90;;;;;;4995688;28;20061;-64
2023/10/21 09:40:44;;;;;;;4.03;0.70;;;17.80;99.90;;;;;;4995607;28;20023;-65
2023/10/21 09:43:13;;;;;;;5.45;0.80;;;17.80;99.90;;;;;;4996454;28;20495;-64
2023/10/21 09:45:42;;;;;;;6.25;0.80;;;17.80;99.90;;;;;;4992839;28;20023;-67
2023/10/21 09:48:11;;;;;;;3.38;0.90;;;17.90;99.90;;;;;;4994468;28;20033;-66
2023/10/21 09:50:41;;;;;;;6.00;0.90;;;17.90;99.90;;;;;;4994013;28;20484;-65
2023/10/21 09:53:12;;;;;;;5.53;1.05;;;17.80;99.90;;;;;;5006754;28;20475;-65
2023/10/21 09:55:41;;;;;;;4.75;1.05;;;17.90;99.90;;;;;;4993547;28;20545;-66
2023/10/21 09:58:08;;;;;;;7.70;1.13;;;17.90;99.90;;;;;;4994165;28;20052;-65
2023/10/21 10:00:38;;;;;;;6.78;1.33;;;17.80;99.90;;;;;;4989143;28;20026;-66
2023/10/21 10:03:05;;;;;;;7.60;1.30;;;17.80;99.90;;;;;;4992371;28;20092;-66
2023/10/21 10:05:32;;;;;;;6.65;1.20;;;17.80;99.90;;;;;;4995661;28;20098;-66
2023/10/21 10:07:59;;;;;;;5.22;1.05;;;17.80;99.90;;;;;;4994463;28;20018;-66
2023/10/21 10:10:25;;;;;;;6.22;1.05;;;17.80;99.90;;;;;;4991148;28;20479;-63
2023/10/21 10:13:12;;;;;;;7.40;1.48;;;17.80;99.90;;;;;;4990827;28;20105;-66
2023/10/21 10:15:39;;;;;;;7.30;1.17;;;17.80;99.90;;;;;;4990925;28;20041;-67
2023/10/21 10:18:21;;;;;;;6.40;1.35;;;17.80;99.90;;;;;;4987286;28;20023;-65
2023/10/21 10:20:52;;;;;;;6.30;1.70;;;17.90;99.90;;;;;;4990447;28;20097;-66
2023/10/21 10:23:19;;;;;;;9.23;1.40;;;17.90;99.90;;;;;;4992423;28;20018;-64
2023/10/21 10:25:51;;;;;;;9.55;1.15;;;17.90;99.90;;;;;;4988025;28;20037;-65
2023/10/21 10:28:21;;;;;;;6.25;1.67;;;17.90;99.90;;;;;;4989855;28;20029;-65
2023/10/21 10:30:52;;;;;;;8.85;1.63;;;17.90;99.90;;;;;;4988590;28;20045;-65
2023/10/21 10:33:22;;;;;;;7.75;1.85;;;17.90;99.90;;;;;;4994661;28;20031;-65
2023/10/21 10:36:00;;;;;;;10.48;1.92;;;17.80;99.50;;;;;;4992496;28;20703;-66
2023/10/21 10:38:34;;;;;;;9.77;2.67;;;17.90;99.80;;;;;;4989788;28;20034;-67
2023/10/21 10:41:09;;;;;;;12.07;3.47;;;18.00;99.90;;;;;;4995245;28;20088;-66
2023/10/21 10:43:39;;;;;;;10.75;4.00;;;18.00;99.90;;;;;;4993954;28;20026;-66
2023/10/21 10:46:05;;;;;;;13.50;4.00;;;18.20;99.90;;;;;;4989570;28;20489;-68
2023/10/21 10:48:32;;;;;;;8.88;2.83;;;18.10;99.90;;;;;;4986057;28;20495;-65
2023/10/21 10:51:09;;;;;;;10.00;2.90;;;18.20;99.90;;;;;;4994194;28;20034;-66
2023/10/21 10:53:35;;;;;;;10.43;3.55;;;18.20;99.90;;;;;;4993608;28;20416;-66
2023/10/21 10:56:00;;;;;;;9.43;2.75;;;18.20;99.90;;;;;;4992818;28;20453;-66
2023/10/21 10:58:26;;;;;;;11.32;2.45;;;18.30;99.90;;;;;;4994580;28;20426;-67
2023/10/21 11:00:53;;;;;;;14.43;3.40;;;18.30;99.90;;;;;;4993405;28;20037;-66
2023/10/21 11:03:26;;;;;;;8.82;2.83;;;18.30;99.90;;;;;;4984767;28;20532;-67
2023/10/21 11:05:55;;;;;;;9.90;2.72;;;18.30;99.90;;;;;;4991313;28;20038;-66
2023/10/21 11:08:21;;;;;;;10.10;2.67;;;18.30;99.90;;;;;;4992409;28;20109;-67
2023/10/21 11:10:48;;;;;;;7.25;2.10;;;18.40;99.90;;;;;;4995517;28;20023;-66
2023/10/21 11:13:13;;;;;;;8.48;2.05;;;18.30;99.90;;;;;;4992735;28;20487;-65
2023/10/21 11:15:44;;;;;;;10.20;2.65;;;18.30;99.90;;;;;;4993649;28;20041;-65
2023/10/21 11:18:13;;;;;;;10.55;1.95;;;18.30;99.90;;;;;;4992452;28;20495;-68
2023/10/21 11:20:49;;;;;;;7.40;2.40;;;18.30;99.90;;;;;;4988998;28;20041;-65
2023/10/21 11:23:17;;;;;;;14.82;2.50;;;18.30;99.90;;;;;;4987851;28;20487;-64
2023/10/21 11:25:45;;;;;;;12.05;2.33;;;18.30;99.90;;;;;;4980264;28;20027;-63
2023/10/21 11:28:13;;;;;;;13.30;2.25;;;18.40;99.90;;;;;;4986158;28;20026;-64
2023/10/21 11:30:41;;;;;;;10.10;2.15;;;18.40;99.90;;;;;;4989532;28;20117;-64
2023/10/21 11:33:09;;;;;;;9.77;2.60;;;18.40;99.90;;;;;;4989416;28;20062;-65
2023/10/21 11:35:40;;;;;;;9.75;2.22;;;18.40;99.90;;;;;;4990425;28;20395;-64
2023/10/21 11:38:07;;;;;;;6.88;2.25;;;18.40;99.90;;;;;;4981722;28;20050;-65
2023/10/21 11:40:36;;;;;;;11.13;2.13;;;18.40;99.90;;;;;;4990923;28;20026;-65
2023/10/21 11:43:05;;;;;;;11.60;2.42;;;18.50;99.90;;;;;;4989152;28;20081;-64
2023/10/21 11:45:31;;;;;;;10.30;2.35;;;18.40;99.90;;;;;;4984225;28;20058;-65
2023/10/21 11:48:00;;;;;;;10.40;2.00;;;18.50;99.90;;;;;;4990661;28;20061;-64
2023/10/21 11:50:33;;;;;;;10.52;2.40;;;18.40;99.90;;;;;;4990550;28;20033;-64
2023/10/21 11:53:05;;;;;;;9.73;2.97;;;18.40;99.90;;;;;;4992346;28;20422;-65
2023/10/21 12:07:15;;;;;;;11.00;2.15;;;18.20;99.90;;;;;;4988592;28;20042;-64
2023/10/21 12:28:54;;;;;;;8.18;2.08;;;18.10;99.90;;;;;;4988791;28;20062;-65
2023/10/21 12:41:56;;;;;;;13.23;2.60;;;18.00;99.90;;;;;;4985631;28;20487;-66
2023/10/21 12:44:23;;;;;;;13.33;2.90;;;18.00;99.90;;;;;;4990579;28;20034;-75
2023/10/21 12:47:00;;;;;;;10.93;2.83;;;18.00;99.90;;;;;;4989746;28;20066;-66
2023/10/21 12:49:28;;;;;;;8.98;2.20;;;18.00;99.90;;;;;;4989727;28;20041;-64
2023/10/21 12:51:55;;;;;;;9.90;2.55;;;18.00;99.90;;;;;;4990129;28;20065;-64
2023/10/21 12:54:21;;;;;;;8.32;2.03;;;18.00;99.90;;;;;;4990609;28;20042;-69
2023/10/21 12:56:47;;;;;;;6.93;2.03;;;18.00;99.90;;;;;;4990590;28;20018;-69
2023/10/21 12:59:16;;;;;;;8.63;2.20;;;18.00;99.90;;;;;;4989820;28;20041;-71
2023/10/21 13:01:46;;;;;;;10.18;2.20;;;18.00;99.90;;;;;;4989946;28;20057;-66
2023/10/21 13:04:12;;;;;;;12.13;2.75;;;18.00;99.90;;;;;;4989289;28;20031;-68
2023/10/21 13:06:38;;;;;;;10.88;2.47;;;18.10;99.90;;;;;;4990824;28;20023;-65
2023/10/21 13:09:20;;;;;;;12.00;2.88;;;18.10;99.90;;;;;;4987302;28;20045;-65
2023/10/21 13:11:49;;;;;;;13.90;2.10;;;18.20;99.90;;;;;;4988067;28;20483;-65
2023/10/21 13:14:19;;;;;;;8.93;1.92;;;18.10;99.90;;;;;;4987958;28;20561;-66
2023/10/21 13:17:13;;;;;;;10.77;2.30;;;18.10;99.90;;;;;;4989599;28;20058;-65
2023/10/21 13:19:48;;;;;;;12.30;2.20;;;18.10;99.90;;;;;;4985374;28;20042;-65
2023/10/21 13:22:40;;;;;;;11.15;2.80;;;18.10;99.90;;;;;;4982789;28;20444;-65
2023/10/21 13:25:08;;;;;;;8.93;2.15;;;18.20;99.90;;;;;;4986337;28;20026;-65
2023/10/21 13:27:34;;;;;;;9.20;2.28;;;18.20;99.90;;;;;;4990133;28;20105;-63
2023/10/21 13:29:59;;;;;;;10.32;2.85;;;18.20;99.90;;;;;;4990751;28;20050;-64